Terminal Aerodrome Forecast
Issued by NWS

Home | Current Version | Previous Version | Text Only | Print | Product List | Glossary On
Versions: 1 2 3 4 5 6 7 8 9 10 11 12 13 14
505
FTUS42 TJSJ 171141
TAFIST
TAF
TIST 171141Z 1712/1812 04015KT P6SM FEW025 SCT035
     FM171400 07017G24KT P6SM VCSH SCT025 SCT050
     FM172300 05013KT P6SM VCSH SCT022 SCT040=

USA.gov is the U.S. government's official web portal to all federal, state and local government web resources and services.